Startpagina
METAR-TAF:

METAR-TAF

Vliegvelden :

Luchthaven Jakoetsk

Jakoetsk, Rusland

breedte: 62-01N, lengte: 129-43E, hoogte: 103 m

Actueel weer

Dit bericht is 35 minuten geleden gemaakt, om 21:00 UTC
Wind 4 kt uit het noorden
Temperatuur -39°C
Vochtigheid 59%
Druk 1029 hPa
Zicht: 2100 m
nevel

METAR: UEEE 102100Z 35002MPS 2100 BR NSC M39/M44 Q1029 R23L/450155 NOSIG RMK QFE763

Tijdstip: 06:35 (21:35 UTC)

Verwachting

Dit bericht is 1 uur en het 35 minuten geleden gemaakt, om 20:00 UTC
Verwachting geldig van 10 om 21 UTC tot 12 om 03 UTC
Wind 2 kt uit variabele richting
Zicht: 1200 m
nevel
Tijdelijke
van 10 om 21 UTC tot 11 om 03 UTC
Zicht: 0300 m
op 300 ft
mist

TAF: UEEE 102000Z 1021/1203 VRB01MPS 1200 BR NSC TEMPO 1021/1103 0300 FG VV003

Waarnemingen en weersverwachtingen van meer dan 4000 vliegvelden (METAR en TAF).

De beschikbare stations zijn de gele en rode punten op de kaart.

Ga met uw muis naar het station om de naam te zien.

Klik dan om waarnemingen en weersverwachtingen te zien.

kaart wijzigen: klik op de groene knoppen met een zwart kruis om in te zoomen, op de groene knop met een streepje om uit te zoomen of op de groene pijlen voor aangrenzende kaarten.


METAR-TAF: